sensor_id;sensor_type;location;lat;lon;timestamp;P1;durP1;ratioP1;P2;durP2;ratioP2
31818;SDS011;18384;48.860;9.188;2023-02-01T00:04:10;5.35;;;2.62;;
31818;SDS011;18384;48.860;9.188;2023-02-01T00:06:37;4.93;;;3.10;;
31818;SDS011;18384;48.860;9.188;2023-02-01T00:09:03;5.45;;;2.28;;
31818;SDS011;18384;48.860;9.188;2023-02-01T00:11:29;4.03;;;2.33;;
31818;SDS011;18384;48.860;9.188;2023-02-01T00:13:56;6.57;;;2.83;;
31818;SDS011;18384;48.860;9.188;2023-02-01T00:16:24;8.57;;;2.55;;
31818;SDS011;18384;48.860;9.188;2023-02-01T00:18:58;4.03;;;2.35;;
31818;SDS011;18384;48.860;9.188;2023-02-01T00:21:37;3.60;;;2.35;;
31818;SDS011;18384;48.860;9.188;2023-02-01T00:26:31;3.87;;;2.03;;
31818;SDS011;18384;48.860;9.188;2023-02-01T00:29:13;2.75;;;2.08;;
31818;SDS011;18384;48.860;9.188;2023-02-01T00:31:44;3.62;;;2.17;;
31818;SDS011;18384;48.860;9.188;2023-02-01T00:36:38;3.08;;;1.80;;
31818;SDS011;18384;48.860;9.188;2023-02-01T00:39:04;3.00;;;1.95;;
31818;SDS011;18384;48.860;9.188;2023-02-01T00:41:31;3.03;;;1.92;;
31818;SDS011;18384;48.860;9.188;2023-02-01T00:43:57;4.65;;;2.50;;
31818;SDS011;18384;48.860;9.188;2023-02-01T00:46:23;2.53;;;1.92;;
31818;SDS011;18384;48.860;9.188;2023-02-01T00:48:50;3.60;;;2.12;;
31818;SDS011;18384;48.860;9.188;2023-02-01T00:51:17;3.12;;;2.15;;
31818;SDS011;18384;48.860;9.188;2023-02-01T00:53:46;4.03;;;2.22;;
31818;SDS011;18384;48.860;9.188;2023-02-01T00:56:13;3.58;;;2.20;;
31818;SDS011;18384;48.860;9.188;2023-02-01T00:58:39;4.10;;;2.28;;
31818;SDS011;18384;48.860;9.188;2023-02-01T01:01:09;2.72;;;2.00;;
31818;SDS011;18384;48.860;9.188;2023-02-01T01:03:46;6.20;;;2.50;;
31818;SDS011;18384;48.860;9.188;2023-02-01T01:06:23;4.10;;;2.05;;
31818;SDS011;18384;48.860;9.188;2023-02-01T01:09:00;3.62;;;2.30;;
31818;SDS011;18384;48.860;9.188;2023-02-01T01:11:30;3.50;;;1.90;;
31818;SDS011;18384;48.860;9.188;2023-02-01T01:13:59;4.00;;;1.98;;
31818;SDS011;18384;48.860;9.188;2023-02-01T01:16:26;4.87;;;2.30;;
31818;SDS011;18384;48.860;9.188;2023-02-01T01:18:54;3.62;;;2.10;;
31818;SDS011;18384;48.860;9.188;2023-02-01T01:21:21;4.07;;;1.65;;
31818;SDS011;18384;48.860;9.188;2023-02-01T01:23:47;3.33;;;1.83;;
31818;SDS011;18384;48.860;9.188;2023-02-01T01:26:14;2.70;;;1.75;;
31818;SDS011;18384;48.860;9.188;2023-02-01T01:28:47;2.42;;;1.70;;
31818;SDS011;18384;48.860;9.188;2023-02-01T01:31:15;3.40;;;1.48;;
31818;SDS011;18384;48.860;9.188;2023-02-01T01:33:42;3.62;;;1.70;;
31818;SDS011;18384;48.860;9.188;2023-02-01T01:36:09;4.20;;;2.00;;
31818;SDS011;18384;48.860;9.188;2023-02-01T01:38:36;4.93;;;1.83;;
31818;SDS011;18384;48.860;9.188;2023-02-01T01:41:06;2.50;;;1.67;;
31818;SDS011;18384;48.860;9.188;2023-02-01T01:46:22;2.45;;;1.60;;
31818;SDS011;18384;48.860;9.188;2023-02-01T01:48:53;2.53;;;1.48;;
31818;SDS011;18384;48.860;9.188;2023-02-01T01:51:51;3.37;;;1.80;;
31818;SDS011;18384;48.860;9.188;2023-02-01T01:54:32;3.70;;;1.60;;
31818;SDS011;18384;48.860;9.188;2023-02-01T01:57:06;2.40;;;1.50;;
31818;SDS011;18384;48.860;9.188;2023-02-01T01:59:50;2.10;;;1.42;;
31818;SDS011;18384;48.860;9.188;2023-02-01T02:02:28;3.12;;;1.60;;
31818;SDS011;18384;48.860;9.188;2023-02-01T02:04:54;2.58;;;1.42;;
31818;SDS011;18384;48.860;9.188;2023-02-01T02:07:21;2.78;;;1.37;;
31818;SDS011;18384;48.860;9.188;2023-02-01T02:09:53;3.47;;;1.65;;
31818;SDS011;18384;48.860;9.188;2023-02-01T02:12:20;2.37;;;1.52;;
31818;SDS011;18384;48.860;9.188;2023-02-01T02:14:47;3.80;;;1.60;;
31818;SDS011;18384;48.860;9.188;2023-02-01T02:17:30;2.45;;;1.50;;
31818;SDS011;18384;48.860;9.188;2023-02-01T02:21:12;3.15;;;1.73;;
31818;SDS011;18384;48.860;9.188;2023-02-01T02:23:53;2.55;;;1.37;;
31818;SDS011;18384;48.860;9.188;2023-02-01T02:29:55;1.90;;;1.20;;
31818;SDS011;18384;48.860;9.188;2023-02-01T02:33:29;3.03;;;1.12;;
31818;SDS011;18384;48.860;9.188;2023-02-01T02:36:37;4.70;;;1.65;;
31818;SDS011;18384;48.860;9.188;2023-02-01T02:39:29;1.95;;;1.42;;
31818;SDS011;18384;48.860;9.188;2023-02-01T02:45:44;2.60;;;1.50;;
31818;SDS011;18384;48.860;9.188;2023-02-01T02:48:53;2.17;;;1.50;;
31818;SDS011;18384;48.860;9.188;2023-02-01T02:51:43;3.47;;;1.67;;
31818;SDS011;18384;48.860;9.188;2023-02-01T02:54:57;3.53;;;1.50;;
31818;SDS011;18384;48.860;9.188;2023-02-01T02:57:30;5.47;;;1.90;;
31818;SDS011;18384;48.860;9.188;2023-02-01T03:00:22;2.87;;;1.55;;
31818;SDS011;18384;48.860;9.188;2023-02-01T03:03:13;2.45;;;1.48;;
31818;SDS011;18384;48.860;9.188;2023-02-01T03:05:58;2.40;;;1.75;;
31818;SDS011;18384;48.860;9.188;2023-02-01T03:08:26;4.72;;;2.12;;
31818;SDS011;18384;48.860;9.188;2023-02-01T03:11:00;3.03;;;1.70;;
31818;SDS011;18384;48.860;9.188;2023-02-01T03:13:41;2.67;;;1.65;;
31818;SDS011;18384;48.860;9.188;2023-02-01T03:16:31;3.72;;;1.50;;
31818;SDS011;18384;48.860;9.188;2023-02-01T03:19:09;2.95;;;1.77;;
31818;SDS011;18384;48.860;9.188;2023-02-01T03:21:45;3.12;;;1.58;;
31818;SDS011;18384;48.860;9.188;2023-02-01T03:24:25;2.97;;;1.73;;
31818;SDS011;18384;48.860;9.188;2023-02-01T03:27:08;2.85;;;1.75;;
31818;SDS011;18384;48.860;9.188;2023-02-01T03:29:48;3.12;;;1.90;;
31818;SDS011;18384;48.860;9.188;2023-02-01T03:32:38;3.67;;;2.10;;
31818;SDS011;18384;48.860;9.188;2023-02-01T03:35:30;2.92;;;1.85;;
31818;SDS011;18384;48.860;9.188;2023-02-01T03:38:35;3.33;;;2.17;;
31818;SDS011;18384;48.860;9.188;2023-02-01T03:42:38;2.92;;;1.98;;
31818;SDS011;18384;48.860;9.188;2023-02-01T03:45:11;2.87;;;1.95;;
31818;SDS011;18384;48.860;9.188;2023-02-01T03:47:46;3.22;;;1.75;;
31818;SDS011;18384;48.860;9.188;2023-02-01T03:50:17;3.03;;;1.77;;
31818;SDS011;18384;48.860;9.188;2023-02-01T03:52:51;3.50;;;1.73;;
31818;SDS011;18384;48.860;9.188;2023-02-01T03:55:30;2.40;;;1.65;;
31818;SDS011;18384;48.860;9.188;2023-02-01T03:58:07;4.32;;;1.55;;
31818;SDS011;18384;48.860;9.188;2023-02-01T04:03:32;3.12;;;1.90;;
31818;SDS011;18384;48.860;9.188;2023-02-01T04:05:58;4.60;;;1.70;;
31818;SDS011;18384;48.860;9.188;2023-02-01T04:08:24;3.17;;;1.83;;
31818;SDS011;18384;48.860;9.188;2023-02-01T04:10:50;2.25;;;1.60;;
31818;SDS011;18384;48.860;9.188;2023-02-01T04:13:16;3.25;;;1.70;;
31818;SDS011;18384;48.860;9.188;2023-02-01T04:15:43;2.53;;;1.77;;
31818;SDS011;18384;48.860;9.188;2023-02-01T04:18:10;3.25;;;1.67;;
31818;SDS011;18384;48.860;9.188;2023-02-01T04:20:36;5.47;;;1.85;;
31818;SDS011;18384;48.860;9.188;2023-02-01T04:23:02;1.98;;;1.40;;
31818;SDS011;18384;48.860;9.188;2023-02-01T04:25:29;4.70;;;2.15;;
31818;SDS011;18384;48.860;9.188;2023-02-01T04:27:55;3.20;;;1.70;;
31818;SDS011;18384;48.860;9.188;2023-02-01T04:30:21;2.75;;;1.87;;
31818;SDS011;18384;48.860;9.188;2023-02-01T04:32:48;4.97;;;1.75;;
31818;SDS011;18384;48.860;9.188;2023-02-01T04:35:14;2.40;;;1.60;;
31818;SDS011;18384;48.860;9.188;2023-02-01T04:37:43;4.90;;;1.90;;
31818;SDS011;18384;48.860;9.188;2023-02-01T04:40:09;2.45;;;1.67;;
31818;SDS011;18384;48.860;9.188;2023-02-01T04:42:36;4.43;;;1.70;;
31818;SDS011;18384;48.860;9.188;2023-02-01T04:45:02;3.15;;;1.70;;
31818;SDS011;18384;48.860;9.188;2023-02-01T04:47:29;2.25;;;1.58;;
31818;SDS011;18384;48.860;9.188;2023-02-01T04:49:55;5.05;;;1.70;;
31818;SDS011;18384;48.860;9.188;2023-02-01T04:52:21;2.28;;;1.62;;
31818;SDS011;18384;48.860;9.188;2023-02-01T04:54:47;2.92;;;1.73;;
31818;SDS011;18384;48.860;9.188;2023-02-01T04:57:13;2.85;;;1.40;;
31818;SDS011;18384;48.860;9.188;2023-02-01T04:59:40;3.22;;;1.73;;
31818;SDS011;18384;48.860;9.188;2023-02-01T05:02:06;4.05;;;1.80;;
31818;SDS011;18384;48.860;9.188;2023-02-01T05:04:32;4.37;;;1.58;;
31818;SDS011;18384;48.860;9.188;2023-02-01T05:06:58;2.58;;;1.60;;
31818;SDS011;18384;48.860;9.188;2023-02-01T05:09:24;3.55;;;2.12;;
31818;SDS011;18384;48.860;9.188;2023-02-01T05:11:50;5.72;;;1.77;;
31818;SDS011;18384;48.860;9.188;2023-02-01T05:14:34;2.70;;;1.75;;
31818;SDS011;18384;48.860;9.188;2023-02-01T05:17:01;2.85;;;1.87;;
31818;SDS011;18384;48.860;9.188;2023-02-01T05:19:27;3.05;;;1.83;;
31818;SDS011;18384;48.860;9.188;2023-02-01T05:21:53;3.62;;;1.98;;
31818;SDS011;18384;48.860;9.188;2023-02-01T05:24:19;2.67;;;1.70;;
31818;SDS011;18384;48.860;9.188;2023-02-01T05:26:46;2.65;;;1.60;;
31818;SDS011;18384;48.860;9.188;2023-02-01T05:29:14;5.03;;;1.83;;
31818;SDS011;18384;48.860;9.188;2023-02-01T05:31:44;3.45;;;1.62;;
31818;SDS011;18384;48.860;9.188;2023-02-01T05:34:11;3.03;;;1.60;;
31818;SDS011;18384;48.860;9.188;2023-02-01T05:36:37;1.85;;;1.35;;
31818;SDS011;18384;48.860;9.188;2023-02-01T05:39:03;2.05;;;1.20;;
31818;SDS011;18384;48.860;9.188;2023-02-01T05:43:55;3.25;;;1.45;;
31818;SDS011;18384;48.860;9.188;2023-02-01T05:46:22;4.75;;;1.80;;
31818;SDS011;18384;48.860;9.188;2023-02-01T05:48:48;2.58;;;1.70;;
31818;SDS011;18384;48.860;9.188;2023-02-01T05:51:14;3.37;;;1.75;;
31818;SDS011;18384;48.860;9.188;2023-02-01T05:53:40;2.95;;;1.83;;
31818;SDS011;18384;48.860;9.188;2023-02-01T05:56:07;5.37;;;2.08;;
31818;SDS011;18384;48.860;9.188;2023-02-01T06:00:59;3.95;;;1.35;;
31818;SDS011;18384;48.860;9.188;2023-02-01T06:03:27;4.12;;;1.67;;
31818;SDS011;18384;48.860;9.188;2023-02-01T06:05:53;3.87;;;1.75;;
31818;SDS011;18384;48.860;9.188;2023-02-01T06:08:19;4.07;;;1.65;;
31818;SDS011;18384;48.860;9.188;2023-02-01T06:10:45;4.18;;;1.60;;
31818;SDS011;18384;48.860;9.188;2023-02-01T06:13:12;2.83;;;1.62;;
31818;SDS011;18384;48.860;9.188;2023-02-01T06:15:38;2.92;;;1.50;;
31818;SDS011;18384;48.860;9.188;2023-02-01T06:18:04;3.97;;;1.75;;
31818;SDS011;18384;48.860;9.188;2023-02-01T06:22:56;5.78;;;1.73;;
31818;SDS011;18384;48.860;9.188;2023-02-01T06:25:22;3.72;;;2.37;;
31818;SDS011;18384;48.860;9.188;2023-02-01T06:27:48;2.33;;;1.58;;
31818;SDS011;18384;48.860;9.188;2023-02-01T06:30:14;6.45;;;1.92;;
31818;SDS011;18384;48.860;9.188;2023-02-01T06:35:07;4.37;;;1.80;;
31818;SDS011;18384;48.860;9.188;2023-02-01T06:37:41;5.00;;;2.58;;
31818;SDS011;18384;48.860;9.188;2023-02-01T06:40:08;5.28;;;2.42;;
31818;SDS011;18384;48.860;9.188;2023-02-01T06:42:35;5.37;;;2.35;;
31818;SDS011;18384;48.860;9.188;2023-02-01T06:45:01;5.45;;;2.60;;
31818;SDS011;18384;48.860;9.188;2023-02-01T06:47:27;6.45;;;2.78;;
31818;SDS011;18384;48.860;9.188;2023-02-01T06:49:53;7.45;;;2.25;;
31818;SDS011;18384;48.860;9.188;2023-02-01T06:52:19;7.70;;;3.05;;
31818;SDS011;18384;48.860;9.188;2023-02-01T06:54:46;4.87;;;2.40;;
31818;SDS011;18384;48.860;9.188;2023-02-01T06:57:12;6.78;;;2.55;;
31818;SDS011;18384;48.860;9.188;2023-02-01T06:59:39;5.55;;;2.97;;
31818;SDS011;18384;48.860;9.188;2023-02-01T07:02:05;6.05;;;2.75;;
31818;SDS011;18384;48.860;9.188;2023-02-01T07:04:33;4.20;;;2.50;;
31818;SDS011;18384;48.860;9.188;2023-02-01T07:06:59;10.90;;;3.17;;
31818;SDS011;18384;48.860;9.188;2023-02-01T07:09:25;10.27;;;3.20;;
31818;SDS011;18384;48.860;9.188;2023-02-01T07:11:52;7.90;;;3.15;;
31818;SDS011;18384;48.860;9.188;2023-02-01T07:14:18;6.65;;;2.87;;
31818;SDS011;18384;48.860;9.188;2023-02-01T07:16:44;8.30;;;3.42;;
31818;SDS011;18384;48.860;9.188;2023-02-01T07:19:10;9.18;;;2.67;;
31818;SDS011;18384;48.860;9.188;2023-02-01T07:21:36;11.88;;;3.17;;
31818;SDS011;18384;48.860;9.188;2023-02-01T07:24:02;11.98;;;3.35;;
31818;SDS011;18384;48.860;9.188;2023-02-01T07:26:29;11.40;;;3.17;;
31818;SDS011;18384;48.860;9.188;2023-02-01T07:28:55;6.30;;;3.83;;
31818;SDS011;18384;48.860;9.188;2023-02-01T07:31:21;9.75;;;3.15;;
31818;SDS011;18384;48.860;9.188;2023-02-01T07:36:16;12.60;;;3.03;;
31818;SDS011;18384;48.860;9.188;2023-02-01T07:38:43;12.43;;;3.53;;
31818;SDS011;18384;48.860;9.188;2023-02-01T07:41:12;12.23;;;3.60;;
31818;SDS011;18384;48.860;9.188;2023-02-01T07:43:38;11.38;;;3.45;;
31818;SDS011;18384;48.860;9.188;2023-02-01T07:46:04;9.38;;;3.28;;
31818;SDS011;18384;48.860;9.188;2023-02-01T07:48:31;7.65;;;3.60;;
31818;SDS011;18384;48.860;9.188;2023-02-01T07:51:05;7.55;;;2.87;;
31818;SDS011;18384;48.860;9.188;2023-02-01T07:53:35;9.95;;;3.40;;
31818;SDS011;18384;48.860;9.188;2023-02-01T07:58:33;16.40;;;3.83;;
31818;SDS011;18384;48.860;9.188;2023-02-01T08:00:59;12.18;;;3.10;;
31818;SDS011;18384;48.860;9.188;2023-02-01T08:03:44;9.18;;;3.22;;
31818;SDS011;18384;48.860;9.188;2023-02-01T08:06:10;11.38;;;3.33;;
31818;SDS011;18384;48.860;9.188;2023-02-01T08:08:36;10.55;;;3.05;;
31818;SDS011;18384;48.860;9.188;2023-02-01T08:11:04;14.60;;;4.53;;
31818;SDS011;18384;48.860;9.188;2023-02-01T08:13:32;11.77;;;3.20;;
31818;SDS011;18384;48.860;9.188;2023-02-01T08:16:01;11.07;;;3.62;;
31818;SDS011;18384;48.860;9.188;2023-02-01T08:18:31;10.45;;;3.25;;
31818;SDS011;18384;48.860;9.188;2023-02-01T08:21:01;12.88;;;3.17;;
31818;SDS011;18384;48.860;9.188;2023-02-01T08:23:34;13.17;;;3.43;;
31818;SDS011;18384;48.860;9.188;2023-02-01T08:26:05;11.38;;;3.65;;
31818;SDS011;18384;48.860;9.188;2023-02-01T08:28:34;9.13;;;3.08;;
31818;SDS011;18384;48.860;9.188;2023-02-01T08:31:05;15.68;;;4.18;;
31818;SDS011;18384;48.860;9.188;2023-02-01T08:33:34;7.68;;;3.03;;
31818;SDS011;18384;48.860;9.188;2023-02-01T08:36:02;10.98;;;3.25;;
31818;SDS011;18384;48.860;9.188;2023-02-01T08:38:30;13.18;;;3.65;;
31818;SDS011;18384;48.860;9.188;2023-02-01T08:40:56;13.10;;;3.28;;
31818;SDS011;18384;48.860;9.188;2023-02-01T08:43:22;14.05;;;3.15;;
31818;SDS011;18384;48.860;9.188;2023-02-01T08:45:49;16.30;;;3.70;;
31818;SDS011;18384;48.860;9.188;2023-02-01T08:48:19;15.38;;;3.03;;
31818;SDS011;18384;48.860;9.188;2023-02-01T08:50:45;16.50;;;3.72;;
31818;SDS011;18384;48.860;9.188;2023-02-01T08:53:11;12.32;;;3.17;;
31818;SDS011;18384;48.860;9.188;2023-02-01T08:55:39;11.70;;;2.45;;
31818;SDS011;18384;48.860;9.188;2023-02-01T08:58:05;13.65;;;3.55;;
31818;SDS011;18384;48.860;9.188;2023-02-01T09:00:31;20.52;;;3.55;;
31818;SDS011;18384;48.860;9.188;2023-02-01T09:02:57;16.52;;;2.95;;
31818;SDS011;18384;48.860;9.188;2023-02-01T09:05:24;10.35;;;3.12;;
31818;SDS011;18384;48.860;9.188;2023-02-01T09:07:52;10.80;;;2.70;;
31818;SDS011;18384;48.860;9.188;2023-02-01T09:10:18;13.23;;;3.58;;
31818;SDS011;18384;48.860;9.188;2023-02-01T09:12:44;12.07;;;3.00;;
31818;SDS011;18384;48.860;9.188;2023-02-01T09:15:10;12.80;;;2.97;;
31818;SDS011;18384;48.860;9.188;2023-02-01T09:17:37;18.48;;;3.20;;
31818;SDS011;18384;48.860;9.188;2023-02-01T09:20:04;15.93;;;2.70;;
31818;SDS011;18384;48.860;9.188;2023-02-01T09:22:30;9.90;;;3.20;;
31818;SDS011;18384;48.860;9.188;2023-02-01T09:24:56;14.30;;;3.05;;
31818;SDS011;18384;48.860;9.188;2023-02-01T09:27:22;9.45;;;2.70;;
31818;SDS011;18384;48.860;9.188;2023-02-01T09:29:48;9.45;;;2.78;;
31818;SDS011;18384;48.860;9.188;2023-02-01T09:32:20;10.35;;;2.95;;
31818;SDS011;18384;48.860;9.188;2023-02-01T09:34:49;10.82;;;3.05;;
31818;SDS011;18384;48.860;9.188;2023-02-01T09:37:16;17.52;;;3.70;;
31818;SDS011;18384;48.860;9.188;2023-02-01T09:39:43;8.50;;;2.70;;
31818;SDS011;18384;48.860;9.188;2023-02-01T09:53:36;18.05;;;4.03;;
31818;SDS011;18384;48.860;9.188;2023-02-01T10:01:20;20.37;;;3.35;;
31818;SDS011;18384;48.860;9.188;2023-02-01T10:03:53;14.90;;;3.22;;
31818;SDS011;18384;48.860;9.188;2023-02-01T10:06:30;16.90;;;2.60;;
31818;SDS011;18384;48.860;9.188;2023-02-01T10:16:43;18.08;;;3.05;;
31818;SDS011;18384;48.860;9.188;2023-02-01T10:24:36;15.40;;;2.83;;
31818;SDS011;18384;48.860;9.188;2023-02-01T10:27:22;19.25;;;3.12;;
31818;SDS011;18384;48.860;9.188;2023-02-01T10:33:15;14.95;;;2.65;;
31818;SDS011;18384;48.860;9.188;2023-02-01T10:35:47;17.95;;;2.70;;
31818;SDS011;18384;48.860;9.188;2023-02-01T10:40:53;16.52;;;2.95;;
31818;SDS011;18384;48.860;9.188;2023-02-01T10:43:29;14.55;;;2.92;;
31818;SDS011;18384;48.860;9.188;2023-02-01T10:45:56;19.87;;;3.10;;
31818;SDS011;18384;48.860;9.188;2023-02-01T10:48:22;10.75;;;2.90;;
31818;SDS011;18384;48.860;9.188;2023-02-01T10:50:51;11.05;;;2.50;;
31818;SDS011;18384;48.860;9.188;2023-02-01T10:53:30;12.57;;;2.70;;
31818;SDS011;18384;48.860;9.188;2023-02-01T10:56:25;23.35;;;3.87;;
31818;SDS011;18384;48.860;9.188;2023-02-01T10:59:03;15.45;;;2.62;;
31818;SDS011;18384;48.860;9.188;2023-02-01T11:01:33;24.48;;;4.15;;
31818;SDS011;18384;48.860;9.188;2023-02-01T11:04:09;12.65;;;2.62;;
31818;SDS011;18384;48.860;9.188;2023-02-01T11:06:43;15.57;;;2.55;;
31818;SDS011;18384;48.860;9.188;2023-02-01T11:09:16;10.95;;;2.37;;
31818;SDS011;18384;48.860;9.188;2023-02-01T11:14:32;12.23;;;2.90;;
31818;SDS011;18384;48.860;9.188;2023-02-01T11:21:24;13.85;;;3.12;;
31818;SDS011;18384;48.860;9.188;2023-02-01T11:23:50;14.80;;;2.95;;
31818;SDS011;18384;48.860;9.188;2023-02-01T11:26:20;17.60;;;2.78;;
31818;SDS011;18384;48.860;9.188;2023-02-01T11:29:05;13.57;;;3.37;;
31818;SDS011;18384;48.860;9.188;2023-02-01T11:31:39;15.35;;;3.55;;
31818;SDS011;18384;48.860;9.188;2023-02-01T11:34:12;12.70;;;3.08;;
31818;SDS011;18384;48.860;9.188;2023-02-01T11:36:46;10.50;;;3.15;;
31818;SDS011;18384;48.860;9.188;2023-02-01T11:39:18;22.25;;;3.95;;
31818;SDS011;18384;48.860;9.188;2023-02-01T11:42:04;12.63;;;2.25;;
31818;SDS011;18384;48.860;9.188;2023-02-01T11:44:39;15.15;;;2.45;;
31818;SDS011;18384;48.860;9.188;2023-02-01T11:47:30;8.00;;;2.10;;
31818;SDS011;18384;48.860;9.188;2023-02-01T11:50:08;16.98;;;3.17;;
31818;SDS011;18384;48.860;9.188;2023-02-01T11:55:56;11.50;;;2.67;;
31818;SDS011;18384;48.860;9.188;2023-02-01T11:58:40;18.50;;;2.72;;
31818;SDS011;18384;48.860;9.188;2023-02-01T12:08:19;10.32;;;1.98;;
31818;SDS011;18384;48.860;9.188;2023-02-01T12:11:22;11.27;;;2.20;;
31818;SDS011;18384;48.860;9.188;2023-02-01T12:14:21;13.55;;;2.15;;
31818;SDS011;18384;48.860;9.188;2023-02-01T12:21:03;15.38;;;2.05;;
31818;SDS011;18384;48.860;9.188;2023-02-01T12:24:31;16.17;;;2.97;;
31818;SDS011;18384;48.860;9.188;2023-02-01T12:27:43;11.82;;;2.42;;
31818;SDS011;18384;48.860;9.188;2023-02-01T12:35:59;13.65;;;2.22;;
31818;SDS011;18384;48.860;9.188;2023-02-01T12:39:30;10.60;;;2.60;;
31818;SDS011;18384;48.860;9.188;2023-02-01T12:44:01;12.55;;;3.15;;
31818;SDS011;18384;48.860;9.188;2023-02-01T12:47:04;10.85;;;2.78;;
31818;SDS011;18384;48.860;9.188;2023-02-01T12:55:33;9.68;;;2.60;;
31818;SDS011;18384;48.860;9.188;2023-02-01T12:58:15;9.68;;;2.50;;
31818;SDS011;18384;48.860;9.188;2023-02-01T13:00:55;18.02;;;3.42;;
31818;SDS011;18384;48.860;9.188;2023-02-01T13:03:52;11.95;;;2.70;;
31818;SDS011;18384;48.860;9.188;2023-02-01T13:08:07;10.00;;;2.25;;
31818;SDS011;18384;48.860;9.188;2023-02-01T13:16:39;12.90;;;2.47;;
31818;SDS011;18384;48.860;9.188;2023-02-01T13:19:13;16.62;;;3.08;;
31818;SDS011;18384;48.860;9.188;2023-02-01T13:21:58;16.77;;;3.05;;
31818;SDS011;18384;48.860;9.188;2023-02-01T13:24:36;31.87;;;3.45;;
31818;SDS011;18384;48.860;9.188;2023-02-01T13:27:15;10.55;;;2.33;;
31818;SDS011;18384;48.860;9.188;2023-02-01T13:32:56;14.98;;;2.60;;
31818;SDS011;18384;48.860;9.188;2023-02-01T13:39:23;14.25;;;2.72;;
31818;SDS011;18384;48.860;9.188;2023-02-01T13:42:22;18.48;;;3.20;;
31818;SDS011;18384;48.860;9.188;2023-02-01T13:45:05;17.45;;;3.45;;
31818;SDS011;18384;48.860;9.188;2023-02-01T13:47:46;11.12;;;2.25;;
31818;SDS011;18384;48.860;9.188;2023-02-01T13:50:36;15.23;;;2.70;;
31818;SDS011;18384;48.860;9.188;2023-02-01T13:53:17;16.90;;;2.92;;
31818;SDS011;18384;48.860;9.188;2023-02-01T13:56:12;22.35;;;3.20;;
31818;SDS011;18384;48.860;9.188;2023-02-01T13:58:44;9.32;;;1.85;;
31818;SDS011;18384;48.860;9.188;2023-02-01T14:15:23;12.35;;;3.17;;
31818;SDS011;18384;48.860;9.188;2023-02-01T14:17:52;17.17;;;2.92;;
31818;SDS011;18384;48.860;9.188;2023-02-01T14:20:36;11.05;;;2.28;;
31818;SDS011;18384;48.860;9.188;2023-02-01T14:23:13;16.67;;;3.42;;
31818;SDS011;18384;48.860;9.188;2023-02-01T14:25:44;18.15;;;2.97;;
31818;SDS011;18384;48.860;9.188;2023-02-01T14:28:21;14.73;;;3.08;;
31818;SDS011;18384;48.860;9.188;2023-02-01T14:30:51;13.07;;;2.80;;
31818;SDS011;18384;48.860;9.188;2023-02-01T14:33:20;12.18;;;2.90;;
31818;SDS011;18384;48.860;9.188;2023-02-01T14:35:57;13.98;;;3.20;;
31818;SDS011;18384;48.860;9.188;2023-02-01T14:38:47;16.75;;;3.83;;
31818;SDS011;18384;48.860;9.188;2023-02-01T14:41:29;13.68;;;2.85;;
31818;SDS011;18384;48.860;9.188;2023-02-01T14:47:06;17.52;;;2.62;;
31818;SDS011;18384;48.860;9.188;2023-02-01T14:49:58;10.80;;;2.90;;
31818;SDS011;18384;48.860;9.188;2023-02-01T14:52:39;9.45;;;1.95;;
31818;SDS011;18384;48.860;9.188;2023-02-01T14:55:23;9.82;;;2.58;;
31818;SDS011;18384;48.860;9.188;2023-02-01T14:57:56;8.85;;;2.03;;
31818;SDS011;18384;48.860;9.188;2023-02-01T15:00:27;12.40;;;2.83;;
31818;SDS011;18384;48.860;9.188;2023-02-01T15:06:28;13.10;;;2.97;;
31818;SDS011;18384;48.860;9.188;2023-02-01T15:09:17;10.73;;;2.37;;
31818;SDS011;18384;48.860;9.188;2023-02-01T15:16:16;13.32;;;2.47;;
31818;SDS011;18384;48.860;9.188;2023-02-01T15:18:43;14.85;;;2.75;;
31818;SDS011;18384;48.860;9.188;2023-02-01T15:21:15;10.15;;;2.35;;
31818;SDS011;18384;48.860;9.188;2023-02-01T15:23:48;15.52;;;2.50;;
31818;SDS011;18384;48.860;9.188;2023-02-01T15:26:29;17.55;;;2.80;;
31818;SDS011;18384;48.860;9.188;2023-02-01T15:29:00;10.27;;;2.70;;
31818;SDS011;18384;48.860;9.188;2023-02-01T15:31:36;17.55;;;2.40;;
31818;SDS011;18384;48.860;9.188;2023-02-01T15:34:06;12.18;;;2.37;;
31818;SDS011;18384;48.860;9.188;2023-02-01T15:36:33;12.65;;;2.90;;
31818;SDS011;18384;48.860;9.188;2023-02-01T15:44:17;14.55;;;2.33;;
31818;SDS011;18384;48.860;9.188;2023-02-01T15:46:52;13.80;;;2.47;;
31818;SDS011;18384;48.860;9.188;2023-02-01T15:49:20;9.57;;;2.10;;
31818;SDS011;18384;48.860;9.188;2023-02-01T15:51:55;13.18;;;2.05;;
31818;SDS011;18384;48.860;9.188;2023-02-01T15:54:30;13.30;;;2.42;;
31818;SDS011;18384;48.860;9.188;2023-02-01T15:57:07;13.57;;;2.35;;
31818;SDS011;18384;48.860;9.188;2023-02-01T15:59:40;14.45;;;2.58;;
31818;SDS011;18384;48.860;9.188;2023-02-01T16:02:25;11.02;;;2.53;;
31818;SDS011;18384;48.860;9.188;2023-02-01T16:05:21;14.63;;;2.75;;
31818;SDS011;18384;48.860;9.188;2023-02-01T16:08:10;10.20;;;2.12;;
31818;SDS011;18384;48.860;9.188;2023-02-01T16:10:48;10.88;;;2.47;;
31818;SDS011;18384;48.860;9.188;2023-02-01T16:13:20;19.80;;;3.08;;
31818;SDS011;18384;48.860;9.188;2023-02-01T16:15:47;10.57;;;2.80;;
31818;SDS011;18384;48.860;9.188;2023-02-01T16:18:14;6.93;;;2.00;;
31818;SDS011;18384;48.860;9.188;2023-02-01T16:20:41;14.60;;;2.47;;
31818;SDS011;18384;48.860;9.188;2023-02-01T16:23:09;12.98;;;2.65;;
31818;SDS011;18384;48.860;9.188;2023-02-01T16:25:36;15.27;;;2.60;;
31818;SDS011;18384;48.860;9.188;2023-02-01T16:28:05;11.35;;;2.17;;
31818;SDS011;18384;48.860;9.188;2023-02-01T16:30:31;12.55;;;2.67;;
31818;SDS011;18384;48.860;9.188;2023-02-01T16:32:58;11.12;;;2.28;;
31818;SDS011;18384;48.860;9.188;2023-02-01T16:35:34;19.65;;;2.33;;
31818;SDS011;18384;48.860;9.188;2023-02-01T16:38:05;15.40;;;2.40;;
31818;SDS011;18384;48.860;9.188;2023-02-01T16:40:39;12.25;;;2.20;;
31818;SDS011;18384;48.860;9.188;2023-02-01T16:43:16;14.98;;;2.75;;
31818;SDS011;18384;48.860;9.188;2023-02-01T16:45:46;8.35;;;2.15;;
31818;SDS011;18384;48.860;9.188;2023-02-01T16:48:23;11.82;;;2.25;;
31818;SDS011;18384;48.860;9.188;2023-02-01T16:51:12;9.75;;;2.33;;
31818;SDS011;18384;48.860;9.188;2023-02-01T16:53:41;17.15;;;2.80;;
31818;SDS011;18384;48.860;9.188;2023-02-01T16:56:14;8.98;;;2.10;;
31818;SDS011;18384;48.860;9.188;2023-02-01T16:58:43;10.18;;;2.45;;
31818;SDS011;18384;48.860;9.188;2023-02-01T17:01:11;16.67;;;2.60;;
31818;SDS011;18384;48.860;9.188;2023-02-01T17:03:39;11.93;;;2.67;;
31818;SDS011;18384;48.860;9.188;2023-02-01T17:06:06;8.77;;;2.42;;
31818;SDS011;18384;48.860;9.188;2023-02-01T17:08:36;17.90;;;4.50;;
31818;SDS011;18384;48.860;9.188;2023-02-01T17:11:06;10.85;;;2.72;;
31818;SDS011;18384;48.860;9.188;2023-02-01T17:13:33;12.43;;;2.95;;
31818;SDS011;18384;48.860;9.188;2023-02-01T17:16:42;13.07;;;2.30;;
31818;SDS011;18384;48.860;9.188;2023-02-01T17:19:16;10.50;;;2.55;;
31818;SDS011;18384;48.860;9.188;2023-02-01T17:21:52;11.82;;;2.95;;
31818;SDS011;18384;48.860;9.188;2023-02-01T17:24:30;14.18;;;3.22;;
31818;SDS011;18384;48.860;9.188;2023-02-01T17:26:57;10.95;;;2.80;;
31818;SDS011;18384;48.860;9.188;2023-02-01T17:29:23;13.62;;;3.12;;
31818;SDS011;18384;48.860;9.188;2023-02-01T17:31:51;12.82;;;2.95;;
31818;SDS011;18384;48.860;9.188;2023-02-01T17:34:19;14.20;;;3.25;;
31818;SDS011;18384;48.860;9.188;2023-02-01T17:36:47;10.35;;;2.92;;
31818;SDS011;18384;48.860;9.188;2023-02-01T17:39:13;10.00;;;2.30;;
31818;SDS011;18384;48.860;9.188;2023-02-01T17:41:59;10.73;;;2.20;;
31818;SDS011;18384;48.860;9.188;2023-02-01T17:44:26;12.70;;;2.83;;
31818;SDS011;18384;48.860;9.188;2023-02-01T17:46:53;15.93;;;3.35;;
31818;SDS011;18384;48.860;9.188;2023-02-01T17:49:21;16.30;;;3.25;;